• Join FlightAware (Why Join?)
  • Login
  • US Flag 
09:44PM EDT


 

Airport Tracker/Info


-or-


 

Live Flight TrackerFlight Track Log ✈ N403QS ✈ 08-Apr-2013 ✈ KAPA - KRIL

Flight Track Log - Related Links

Times and Time Zones

All times are in EDT time to prevent confusion due to time zone crossing. See the N403QS flight status page for this flight to view local times or setup timezone preferences in your user account.

Time Position Orientation Groundspeed Altitude Reporting Facility
EDT Latitude Longitude Course Direction KTS MPH feet Rate Location/Type
09:01AM 39.5333 -104.9167 288° West 243 280 8,800  Level Denver TRACON
09:02AM 39.5667 -105.0167 293° West 292 336 11,000 2,040 Climbing Denver TRACON
09:03AM 39.5822 -105.0492 302° West 304 350 11,700 3,240 Climbing Denver Center
09:04AM 39.6125 -105.1658 289° West 336 387 15,600 3,660 Climbing Denver Center
09:05AM 39.6339 -105.2889 283° West 349 402 19,200 3,300 Climbing Denver Center
09:06AM 39.6569 -105.4256 282° West 367 422 22,400 1,860 Climbing Denver Center
09:07AM 39.6556 -105.4391 288° West  Level FlightAware Approximate
09:07AM 39.6800 -105.5606 283° West 384 442 23,000  Level Denver Center
09:08AM 39.6953 -105.6992 278° West 388 447 23,000  Level Denver Center
09:09AM 39.6781 -105.8406 261° West 365 420 23,000  Level Denver Center
09:10AM 39.6644 -105.9750 263° West 373 429 23,000  Level Denver Center
09:11AM 39.6492 -106.1100 262° West 374 430 23,000 -240 Level Denver Center
09:12AM 39.6358 -106.2381 262° West 376 433 22,600 -660 Descending Denver Center
09:13AM 39.6108 -106.3667 256° West 370 426 21,700 -1,080 Descending Denver Center
09:14AM 39.5708 -106.4858 247° West 362 417 20,500 -900 Descending Denver Center
09:15AM 39.5311 -106.6097 247° West 356 410 20,000 -300 Descending Denver Center
09:16AM 39.4933 -106.7258 247° West 362 417 20,000 -840 Level Denver Center
09:17AM 39.4506 -106.8594 248° West 360 414 18,400 -1,980 Descending Denver Center
09:18AM 39.4647 -106.9739 279° West 353 406 16,000 -1,740 Descending Denver Center
09:19AM 39.5022 -107.0786 295° West 327 376 14,900 -1,080 Descending Denver Center
09:20AM 39.5353 -107.1828 292° West 312 359 13,900 -1,200 Descending Denver Center
09:21AM 39.5342 -107.2850 269° West 279 321 12,600 -1,200 Descending Denver Center
09:22AM 39.5339 -107.3700 270° West 257 296 11,500 -1,260 Descending Denver Center
09:23AM 39.5317 -107.4536 268° West 214 246 10,100 -1,380 Descending Denver Center